Terminal Aerodrome Forecast
Issued by NWS Cleveland, OH

Home | Current Version | Previous Version | Graphics & Text | Print | Product List | Glossary On
Versions: 1 2 3 4 5 6 7 8 9 10 11 12 13 14 15 16 17 18
000
FTUS41 KCLE 201300 AAA
TAFCAK
TAF AMD
KCAK 201309Z 2013/2112 16003KT 3SM BR OVC007
     FM201400 VRB03KT 5SM BR BKN012
     FM201600 VRB04KT P6SM BKN025
     FM202100 20004KT P6SM SCT050
     FM210900 04004KT 4SM BR SCT250=

USA.gov is the U.S. government's official web portal to all federal, state and local government web resources and services.